createdAt,value
2022-12-20T00:01:15.753Z,95290.41
2022-12-20T00:03:42.372Z,95367.34
2022-12-20T00:06:08.802Z,95236.91
2022-12-20T00:08:36.132Z,95159.91
2022-12-20T00:11:03.233Z,95109.53
2022-12-20T00:13:29.611Z,95020.00
2022-12-20T00:16:09.724Z,95015.16
2022-12-20T00:18:36.823Z,94997.34
2022-12-20T00:21:03.618Z,95004.47
2022-12-20T00:23:30.004Z,95036.41
2022-12-20T00:26:13.375Z,95094.91
2022-12-20T00:28:40.453Z,95096.72
2022-12-20T00:31:07.110Z,95058.00
2022-12-20T00:33:34.306Z,94882.72
2022-12-20T00:36:00.710Z,94748.25
2022-12-20T00:38:27.220Z,94671.09
2022-12-20T00:41:12.997Z,94626.13
2022-12-20T00:43:39.601Z,94611.81
2022-12-20T00:46:07.060Z,94618.28
2022-12-20T00:48:33.544Z,94629.97
2022-12-20T00:51:11.266Z,94618.59
2022-12-20T00:53:37.753Z,94616.81
2022-12-20T00:56:04.582Z,94660.50
2022-12-20T00:58:32.638Z,94693.69
2022-12-20T01:00:59.074Z,94714.34
2022-12-20T01:03:25.991Z,94685.22
2022-12-20T01:06:02.125Z,94701.94
2022-12-20T01:08:29.285Z,94782.44
2022-12-20T01:11:05.918Z,94860.84
2022-12-20T01:13:32.887Z,94864.75
2022-12-20T01:16:26.927Z,94849.78
2022-12-20T01:18:53.473Z,94833.19
2022-12-20T01:21:21.142Z,94856.97
2022-12-20T01:23:47.606Z,94878.44
2022-12-20T01:26:16.851Z,94928.22
2022-12-20T01:28:44.170Z,94971.16
2022-12-20T01:31:12.017Z,95018.69
2022-12-20T01:33:38.525Z,95045.34
2022-12-20T01:36:09.118Z,95015.09
2022-12-20T01:38:35.705Z,94999.47
2022-12-20T01:41:02.142Z,95010.56
2022-12-20T01:43:45.852Z,95009.41
2022-12-20T01:46:12.407Z,95046.31
2022-12-20T01:48:38.815Z,95063.50
2022-12-20T01:51:05.266Z,94957.44
2022-12-20T01:53:31.682Z,94864.28
2022-12-20T01:56:00.125Z,94871.25
2022-12-20T01:58:26.541Z,94853.88
2022-12-20T02:00:52.939Z,94864.44
2022-12-20T02:03:19.304Z,94837.41
2022-12-20T02:05:45.998Z,94787.50
2022-12-20T02:08:13.804Z,94733.31
2022-12-20T02:11:01.875Z,94715.69
2022-12-20T02:13:35.572Z,94778.19
2022-12-20T02:16:01.969Z,94781.09
2022-12-20T02:18:47.253Z,94793.81
2022-12-20T02:21:30.376Z,94797.03
2022-12-20T02:24:01.668Z,94812.97
2022-12-20T02:26:46.412Z,94828.97
2022-12-20T02:29:31.486Z,94822.44
2022-12-20T02:32:10.047Z,94791.19
2022-12-20T02:34:36.839Z,94759.78
2022-12-20T02:37:03.281Z,94753.06
2022-12-20T02:39:30.053Z,94722.78
2022-12-20T02:42:03.068Z,94780.63
2022-12-20T02:44:48.127Z,94765.31
2022-12-20T02:47:18.259Z,94662.16
2022-12-20T02:49:44.755Z,94624.88
2022-12-20T02:52:11.188Z,94557.19
2022-12-20T02:54:37.568Z,94531.97
2022-12-20T02:57:03.899Z,94502.16
2022-12-20T02:59:32.447Z,94469.59
2022-12-20T03:01:58.963Z,94488.69
2022-12-20T03:04:27.848Z,94418.19
2022-12-20T03:07:01.956Z,94360.41
2022-12-20T03:09:29.886Z,94353.41
2022-12-20T03:11:56.262Z,94318.19
2022-12-20T03:14:22.793Z,94289.94
2022-12-20T03:16:49.266Z,94299.91
2022-12-20T03:19:15.895Z,94221.31
2022-12-20T03:21:43.440Z,94160.31
2022-12-20T03:24:11.108Z,94228.88
2022-12-20T03:26:37.695Z,94240.63
2022-12-20T03:29:04.371Z,94197.72
2022-12-20T03:31:30.795Z,94173.63
2022-12-20T03:33:57.143Z,94139.69
2022-12-20T03:36:24.123Z,94114.28
2022-12-20T03:38:51.349Z,94207.19
2022-12-20T03:41:17.695Z,94277.97
2022-12-20T03:43:44.198Z,94278.88
2022-12-20T03:46:10.606Z,94247.34
2022-12-20T03:48:36.970Z,94225.63
2022-12-20T03:51:03.482Z,94177.97
2022-12-20T03:53:29.844Z,94100.00
2022-12-20T03:55:56.412Z,94069.19
2022-12-20T03:58:22.888Z,94071.84
2022-12-20T04:00:49.259Z,94154.22
2022-12-20T04:03:15.730Z,94133.22
2022-12-20T04:05:42.197Z,94111.66
2022-12-20T04:08:08.560Z,94079.31
2022-12-20T04:10:57.891Z,94106.97
2022-12-20T04:13:24.273Z,94119.00
2022-12-20T04:15:53.061Z,94152.59
2022-12-20T04:18:23.157Z,94185.97
2022-12-20T04:20:53.287Z,94214.03
2022-12-20T04:23:19.669Z,94212.50
2022-12-20T04:25:46.027Z,94287.75
2022-12-20T04:28:12.376Z,94328.13
2022-12-20T04:30:38.721Z,94276.91
2022-12-20T04:33:05.107Z,94274.94
2022-12-20T04:35:31.464Z,94274.81
2022-12-20T04:37:57.815Z,94322.00
2022-12-20T04:40:24.210Z,94357.75
2022-12-20T04:42:50.642Z,94401.47
2022-12-20T04:45:17.018Z,94532.28
2022-12-20T04:47:43.419Z,94611.34
2022-12-20T04:50:10.069Z,94688.63
2022-12-20T04:52:55.249Z,94717.31
2022-12-20T04:55:21.656Z,94733.78
2022-12-20T04:57:48.075Z,94795.66
2022-12-20T05:00:15.434Z,94870.25
2022-12-20T05:02:42.124Z,94991.31
2022-12-20T05:05:08.855Z,94981.34
2022-12-20T05:07:35.297Z,95033.72
2022-12-20T05:10:01.668Z,95020.00
2022-12-20T05:12:28.032Z,95056.38
2022-12-20T05:14:54.435Z,95057.81
2022-12-20T05:17:20.855Z,95080.16
2022-12-20T05:19:47.251Z,95110.97
2022-12-20T05:22:32.451Z,95119.63
2022-12-20T05:25:17.208Z,95086.84
2022-12-20T05:27:43.559Z,95122.41
2022-12-20T05:30:10.503Z,95152.75
2022-12-20T05:32:36.928Z,95133.78
2022-12-20T05:35:03.456Z,95198.25
2022-12-20T05:37:29.899Z,95236.28
2022-12-20T05:39:56.339Z,95261.09
2022-12-20T05:42:22.739Z,95252.56
2022-12-20T05:44:49.112Z,95205.25
2022-12-20T05:47:15.483Z,95170.53
2022-12-20T05:49:41.877Z,95111.47
2022-12-20T05:52:08.291Z,95059.91
2022-12-20T05:54:34.770Z,95022.66
2022-12-20T05:57:01.245Z,95014.91
2022-12-20T05:59:27.584Z,94936.75
2022-12-20T06:01:54.900Z,94867.94
2022-12-20T06:04:21.506Z,94772.69
2022-12-20T06:06:47.902Z,94707.53
2022-12-20T06:09:14.275Z,94623.81
2022-12-20T06:11:40.730Z,94489.78
2022-12-20T06:14:07.074Z,94373.41
2022-12-20T06:16:33.519Z,94348.00
2022-12-20T06:19:00.621Z,94334.53
2022-12-20T06:21:28.425Z,94327.16
2022-12-20T06:23:55.004Z,94277.84
2022-12-20T06:26:23.311Z,94266.81
2022-12-20T06:28:52.626Z,94270.66
2022-12-20T06:31:19.155Z,94298.72
2022-12-20T06:33:45.558Z,94321.94
2022-12-20T06:36:11.895Z,94297.13
2022-12-20T06:38:38.239Z,94298.72
2022-12-20T06:41:04.790Z,94299.47
2022-12-20T06:43:31.136Z,94299.72
2022-12-20T06:45:57.612Z,94357.00
2022-12-20T06:48:24.103Z,94415.56
2022-12-20T06:50:55.663Z,94467.31
2022-12-20T06:53:22.602Z,94479.09
2022-12-20T06:55:50.149Z,94468.75
2022-12-20T06:58:17.663Z,94392.50
2022-12-20T07:00:44.057Z,94328.81
2022-12-20T07:03:10.660Z,94334.13
2022-12-20T07:05:37.070Z,94326.28
2022-12-20T07:08:04.600Z,94321.88
2022-12-20T07:10:31.899Z,94320.44
2022-12-20T07:12:58.256Z,94317.81
2022-12-20T07:15:24.635Z,94318.72
2022-12-20T07:17:52.477Z,94343.19
2022-12-20T07:20:18.929Z,94374.75
2022-12-20T07:22:47.588Z,94377.63
2022-12-20T07:25:14.678Z,94414.59
2022-12-20T07:27:41.243Z,94435.81
2022-12-20T07:30:08.173Z,94461.09
2022-12-20T07:32:34.562Z,94475.94
2022-12-20T07:35:01.394Z,94469.19
2022-12-20T07:37:29.253Z,94471.63
2022-12-20T07:39:55.624Z,94504.53
2022-12-20T07:42:21.980Z,94525.41
2022-12-20T07:44:48.358Z,94534.00
2022-12-20T07:47:14.753Z,94507.94
2022-12-20T07:49:41.158Z,94452.19
2022-12-20T07:52:07.521Z,94430.22
2022-12-20T07:54:35.922Z,94468.91
2022-12-20T07:57:05.732Z,94538.34
2022-12-20T07:59:38.960Z,94529.81
2022-12-20T08:02:08.516Z,94497.78
2022-12-20T08:04:35.063Z,94395.72
2022-12-20T08:07:01.657Z,94311.81
2022-12-20T08:09:29.059Z,94197.38
2022-12-20T08:11:55.443Z,94053.22
2022-12-20T08:14:21.807Z,93945.50
2022-12-20T08:16:48.207Z,93844.00
2022-12-20T08:19:14.600Z,93757.75
2022-12-20T08:21:40.981Z,93658.69
2022-12-20T08:24:08.256Z,93552.81
2022-12-20T08:26:41.622Z,93487.41
2022-12-20T08:29:08.664Z,93484.59
2022-12-20T08:31:39.660Z,93492.03
2022-12-20T08:34:08.962Z,93488.78
2022-12-20T08:36:35.301Z,93545.78
2022-12-20T08:39:05.421Z,93621.00
2022-12-20T08:41:31.828Z,93734.97
2022-12-20T08:43:58.181Z,93840.09
2022-12-20T08:46:24.598Z,93895.44
2022-12-20T08:48:50.987Z,93930.75
2022-12-20T08:51:17.460Z,93994.53
2022-12-20T08:53:43.895Z,94034.31
2022-12-20T08:56:15.032Z,94061.13
2022-12-20T08:58:41.935Z,94063.47
2022-12-20T09:01:10.272Z,94119.47
2022-12-20T09:03:36.887Z,94163.19
2022-12-20T09:06:14.750Z,94169.13
2022-12-20T09:08:41.349Z,94135.78
2022-12-20T09:11:26.179Z,94092.25
2022-12-20T09:13:53.887Z,94099.69
2022-12-20T09:16:22.131Z,94121.47
2022-12-20T09:18:52.775Z,94183.41
2022-12-20T09:21:19.297Z,94292.06
2022-12-20T09:23:45.844Z,94370.59
2022-12-20T09:26:13.558Z,94463.66
2022-12-20T09:28:39.978Z,94503.72
2022-12-20T09:31:08.732Z,94524.69
2022-12-20T09:33:35.216Z,94517.78
2022-12-20T09:36:01.868Z,94570.94
2022-12-20T09:38:28.917Z,94588.41
2022-12-20T09:40:57.684Z,94645.16
2022-12-20T09:43:24.137Z,94669.16
2022-12-20T09:45:52.823Z,94697.91
2022-12-20T09:48:24.853Z,94788.72
2022-12-20T09:51:10.496Z,94848.00
2022-12-20T09:53:56.826Z,94884.91
2022-12-20T09:56:42.013Z,94871.56
2022-12-20T09:59:11.992Z,94860.06
2022-12-20T10:01:40.272Z,94927.53
2022-12-20T10:04:11.291Z,94877.00
2022-12-20T10:06:43.845Z,94866.09
2022-12-20T10:09:30.430Z,94897.75
2022-12-20T10:12:01.827Z,94886.31
2022-12-20T10:14:28.199Z,94928.31
2022-12-20T10:16:58.415Z,94941.00
2022-12-20T10:19:43.143Z,94932.88
2022-12-20T10:22:21.084Z,94943.31
2022-12-20T10:25:00.055Z,94989.91
2022-12-20T10:27:26.462Z,95058.13
2022-12-20T10:29:52.898Z,95093.41
2022-12-20T10:32:22.178Z,95131.16
2022-12-20T10:35:01.398Z,95118.22
2022-12-20T10:37:27.788Z,95149.47
2022-12-20T10:39:54.233Z,95205.22
2022-12-20T10:42:40.258Z,95284.75
2022-12-20T10:45:15.759Z,95345.06
2022-12-20T10:47:43.262Z,95371.06
2022-12-20T10:50:20.262Z,95378.28
2022-12-20T10:53:02.720Z,95409.66
2022-12-20T10:55:35.463Z,95423.03
2022-12-20T10:58:29.820Z,95402.13
2022-12-20T11:01:06.681Z,95350.13
2022-12-20T11:03:33.268Z,95343.09
2022-12-20T11:06:04.510Z,95422.34
2022-12-20T11:08:41.225Z,95489.59
2022-12-20T11:11:24.119Z,95514.13
2022-12-20T11:13:51.486Z,95521.47
2022-12-20T11:16:37.891Z,95508.38
2022-12-20T11:19:16.620Z,95494.50
2022-12-20T11:21:49.813Z,95558.91
2022-12-20T11:24:33.400Z,95566.44
2022-12-20T11:27:34.270Z,95617.47
2022-12-20T11:30:17.747Z,95616.50
2022-12-20T11:32:54.411Z,95596.38
2022-12-20T11:36:00.465Z,95626.81
2022-12-20T11:38:56.437Z,95628.47
2022-12-20T11:41:29.239Z,95612.25
2022-12-20T11:44:24.824Z,95738.59
2022-12-20T11:47:07.619Z,95858.28
2022-12-20T11:50:08.993Z,95944.06
2022-12-20T11:52:43.518Z,95969.31
2022-12-20T11:55:12.999Z,96018.09
2022-12-20T11:58:17.031Z,95999.09
2022-12-20T12:00:36.763Z,95966.31
2022-12-20T12:03:04.612Z,95992.69
2022-12-20T12:05:40.701Z,96006.09
2022-12-20T12:08:13.533Z,96007.22
2022-12-20T12:10:49.336Z,95996.56
2022-12-20T12:13:18.756Z,95912.16
2022-12-20T12:16:09.919Z,95796.97
2022-12-20T12:18:36.716Z,95819.25
2022-12-20T12:21:09.609Z,95826.44
2022-12-20T12:23:50.995Z,95844.16
2022-12-20T12:26:21.275Z,95917.50
2022-12-20T12:28:51.220Z,95986.28
2022-12-20T12:31:18.842Z,96003.22
2022-12-20T12:34:30.311Z,95961.75
2022-12-20T12:37:32.426Z,95887.63
2022-12-20T12:40:20.720Z,95912.84
2022-12-20T12:43:05.779Z,95976.84
2022-12-20T12:45:41.258Z,95939.81
2022-12-20T12:48:19.140Z,95928.84
2022-12-20T12:50:47.393Z,95883.03
2022-12-20T12:53:15.024Z,95914.13
2022-12-20T12:55:49.189Z,95919.88
2022-12-20T12:58:24.579Z,95904.91
2022-12-20T13:00:55.611Z,95852.84
2022-12-20T13:03:43.977Z,95828.00
2022-12-20T13:06:25.567Z,95850.91
2022-12-20T13:09:03.983Z,95832.59
2022-12-20T13:11:33.952Z,95858.47
2022-12-20T13:14:24.771Z,95930.19
2022-12-20T13:19:38.441Z,95925.94
2022-12-20T13:22:17.218Z,95930.63
2022-12-20T13:24:48.505Z,95931.16
2022-12-20T13:27:27.277Z,95959.00
2022-12-20T13:30:01.063Z,95972.13
2022-12-20T13:32:48.934Z,96020.56
2022-12-20T13:35:24.470Z,96057.84
2022-12-20T13:38:09.626Z,96022.47
2022-12-20T13:40:46.085Z,95998.41
2022-12-20T13:43:25.413Z,95928.81
2022-12-20T13:45:53.193Z,95854.53
2022-12-20T13:48:22.955Z,95825.03
2022-12-20T13:50:50.914Z,95803.91
2022-12-20T13:53:18.457Z,95747.81
2022-12-20T13:55:45.194Z,95721.66
2022-12-20T13:58:14.222Z,95744.84
2022-12-20T14:00:40.668Z,95712.81
2022-12-20T14:03:14.313Z,95736.25
2022-12-20T14:05:40.751Z,95782.53
2022-12-20T14:08:13.595Z,95794.78
2022-12-20T14:10:40.031Z,95748.84
2022-12-20T14:13:26.053Z,95779.47
2022-12-20T14:15:52.664Z,95833.63
2022-12-20T14:18:25.675Z,95815.59
2022-12-20T14:20:56.593Z,95814.66
2022-12-20T14:23:24.546Z,95835.06
2022-12-20T14:25:53.869Z,95795.59
2022-12-20T14:28:27.631Z,95770.72
2022-12-20T14:30:55.262Z,95767.47
2022-12-20T14:33:28.526Z,95823.16
2022-12-20T14:35:55.011Z,95901.06
2022-12-20T14:38:31.902Z,95947.06
2022-12-20T14:40:58.290Z,95979.59
2022-12-20T14:43:29.318Z,95953.75
2022-12-20T14:46:28.614Z,95941.00
2022-12-20T14:49:16.190Z,95989.28
2022-12-20T14:51:42.570Z,96010.00
2022-12-20T14:54:39.930Z,95959.28
2022-12-20T14:57:04.071Z,95978.31
2022-12-20T14:59:31.639Z,95985.16
2022-12-20T15:01:58.921Z,95991.63
2022-12-20T15:04:33.268Z,95960.84
2022-12-20T15:07:00.361Z,95959.91
2022-12-20T15:09:26.799Z,95986.09
2022-12-20T15:11:53.447Z,96004.47
2022-12-20T15:14:28.536Z,96020.94
2022-12-20T15:16:54.949Z,95994.09
2022-12-20T15:19:21.334Z,96011.22
2022-12-20T15:21:47.704Z,95980.44
2022-12-20T15:24:23.652Z,95949.03
2022-12-20T15:26:50.187Z,95977.25
2022-12-20T15:29:20.829Z,96022.25
2022-12-20T15:31:47.414Z,96001.03
2022-12-20T15:34:34.599Z,95949.13
2022-12-20T15:37:02.423Z,95950.16
2022-12-20T15:39:29.203Z,95990.91
2022-12-20T15:41:55.805Z,96000.69
2022-12-20T15:44:23.602Z,95982.72
2022-12-20T15:46:50.380Z,95984.34
2022-12-20T15:49:18.275Z,95981.06
2022-12-20T15:51:45.285Z,95965.97
2022-12-20T15:54:32.989Z,95986.09
2022-12-20T15:57:03.031Z,96002.00
2022-12-20T15:59:58.843Z,96007.31
2022-12-20T16:02:27.479Z,95980.78
2022-12-20T16:04:54.278Z,95955.06
2022-12-20T16:07:20.904Z,95959.56
2022-12-20T16:09:47.312Z,95969.84
2022-12-20T16:12:20.540Z,95987.72
2022-12-20T16:14:46.953Z,95997.69
2022-12-20T16:17:16.661Z,96014.28
2022-12-20T16:19:43.387Z,95996.50
2022-12-20T16:22:16.972Z,96004.03
2022-12-20T16:24:43.694Z,95984.53
2022-12-20T16:27:10.275Z,95990.56
2022-12-20T16:29:36.640Z,96005.19
2022-12-20T16:32:04.213Z,95995.50
2022-12-20T16:34:30.588Z,96029.38
2022-12-20T16:36:57.023Z,96036.19
2022-12-20T16:39:23.461Z,96021.47
2022-12-20T16:41:49.803Z,96013.97
2022-12-20T16:44:16.434Z,96019.41
2022-12-20T16:46:43.173Z,96027.41
2022-12-20T16:49:14.843Z,96038.72
2022-12-20T16:51:46.505Z,96052.78
2022-12-20T16:54:21.771Z,96036.34
2022-12-20T16:56:51.047Z,96011.00
2022-12-20T16:59:19.738Z,96001.88
2022-12-20T17:01:47.041Z,96056.75
2022-12-20T17:04:14.633Z,96050.97
2022-12-20T17:06:41.990Z,96050.91
2022-12-20T17:11:53.269Z,96001.34
2022-12-20T17:14:20.270Z,95999.72
2022-12-20T17:16:46.794Z,95979.59
2022-12-20T17:19:13.851Z,95982.28
2022-12-20T17:24:31.151Z,95927.47
2022-12-20T17:26:57.726Z,95936.47
2022-12-20T17:29:24.108Z,95915.81
2022-12-20T17:31:50.589Z,95904.31
2022-12-20T17:34:27.796Z,95893.50
2022-12-20T17:36:55.176Z,95879.09
2022-12-20T17:39:22.346Z,95826.09
2022-12-20T17:41:51.921Z,95732.59
2022-12-20T17:44:26.019Z,95710.50
2022-12-20T17:46:52.652Z,95711.97
2022-12-20T17:49:19.677Z,95704.72
2022-12-20T17:51:46.263Z,95706.38
2022-12-20T17:54:23.578Z,95703.09
2022-12-20T17:56:50.695Z,95700.13
2022-12-20T17:59:17.199Z,95704.53
2022-12-20T18:01:43.829Z,95688.34
2022-12-20T18:04:11.759Z,95663.84
2022-12-20T18:06:38.983Z,95472.38
2022-12-20T18:09:08.065Z,95310.34
2022-12-20T18:11:34.553Z,95111.78
2022-12-20T18:14:01.161Z,95026.91
2022-12-20T18:16:28.851Z,94929.25
2022-12-20T18:18:55.554Z,94889.41
2022-12-20T18:21:22.708Z,94844.38
2022-12-20T18:23:49.399Z,94667.84
2022-12-20T18:26:17.757Z,94381.00
2022-12-20T18:28:45.288Z,94130.47
2022-12-20T18:31:14.153Z,93895.53
2022-12-20T18:33:40.544Z,93651.88
2022-12-20T18:36:11.703Z,93498.34
2022-12-20T18:38:38.946Z,93339.19
2022-12-20T18:41:06.875Z,93186.75
2022-12-20T18:43:34.009Z,93035.94
2022-12-20T18:46:07.044Z,92847.34
2022-12-20T18:48:33.758Z,92698.03
2022-12-20T18:51:05.253Z,92562.34
2022-12-20T18:53:35.820Z,92417.09
2022-12-20T18:56:06.546Z,92288.00
2022-12-20T18:58:32.959Z,92211.88
2022-12-20T19:01:05.908Z,92134.94
2022-12-20T19:03:32.677Z,92128.16
2022-12-20T19:05:59.469Z,92142.19
2022-12-20T19:08:26.980Z,92142.69
2022-12-20T19:10:53.353Z,92136.66
2022-12-20T19:13:19.798Z,92146.56
2022-12-20T19:15:47.255Z,92165.91
2022-12-20T19:18:14.222Z,92196.16
2022-12-20T19:20:40.770Z,92245.69
2022-12-20T19:23:07.327Z,92295.13
2022-12-20T19:25:35.281Z,92320.69
2022-12-20T19:28:02.428Z,92412.38
2022-12-20T19:30:30.005Z,92565.50
2022-12-20T19:32:56.502Z,92721.50
2022-12-20T19:35:54.087Z,92850.28
2022-12-20T19:38:09.468Z,92966.25
2022-12-20T19:40:36.722Z,93079.31
2022-12-20T19:43:03.079Z,93192.00
2022-12-20T19:45:29.462Z,93330.47
2022-12-20T19:47:55.813Z,93405.50
2022-12-20T19:50:22.137Z,93513.63
2022-12-20T19:52:48.552Z,93632.22
2022-12-20T19:55:15.024Z,93694.03
2022-12-20T19:57:41.366Z,93732.94
2022-12-20T20:00:08.715Z,93799.59
2022-12-20T20:02:35.938Z,93896.34
2022-12-20T20:05:02.427Z,93996.44
2022-12-20T20:07:28.931Z,94040.81
2022-12-20T20:09:55.455Z,94092.00
2022-12-20T20:12:21.900Z,94137.94
2022-12-20T20:14:48.295Z,94178.13
2022-12-20T20:17:14.690Z,94198.41
2022-12-20T20:19:42.511Z,94228.31
2022-12-20T20:22:10.695Z,94239.31
2022-12-20T20:24:37.251Z,94204.94
2022-12-20T20:27:03.691Z,94215.84
2022-12-20T20:29:30.311Z,94217.25
2022-12-20T20:31:56.759Z,94248.75
2022-12-20T20:34:23.142Z,94238.50
2022-12-20T20:36:49.535Z,94219.00
2022-12-20T20:39:15.951Z,94214.13
2022-12-20T20:41:42.882Z,94216.94
2022-12-20T20:44:11.678Z,94214.78
2022-12-20T20:46:38.145Z,94259.84
2022-12-20T20:49:04.578Z,94307.72
2022-12-20T20:51:30.949Z,94401.03
2022-12-20T20:53:57.328Z,94453.22
2022-12-20T20:56:23.737Z,94531.63
2022-12-20T20:58:50.278Z,94576.16
2022-12-20T21:01:16.655Z,94567.81
2022-12-20T21:03:43.166Z,94553.94
2022-12-20T21:08:56.199Z,94594.69
2022-12-20T21:11:22.853Z,94655.22
2022-12-20T21:13:49.361Z,94685.66
2022-12-20T21:16:20.273Z,94697.09
2022-12-20T21:18:53.943Z,94723.41
2022-12-20T21:21:20.683Z,94783.81
2022-12-20T21:23:47.351Z,94808.66
2022-12-20T21:26:14.814Z,94846.16
2022-12-20T21:28:41.958Z,94877.94
2022-12-20T21:31:11.545Z,94896.72
2022-12-20T21:33:38.142Z,94914.97
2022-12-20T21:36:06.640Z,94933.78
2022-12-20T21:38:33.082Z,94934.25
2022-12-20T21:41:07.008Z,94933.41
2022-12-20T21:43:33.502Z,94971.59
2022-12-20T21:45:59.981Z,94958.38
2022-12-20T21:48:26.740Z,94939.81
2022-12-20T21:50:59.318Z,94903.59
2022-12-20T21:53:25.728Z,94901.63
2022-12-20T21:55:56.529Z,94863.44
2022-12-20T21:58:23.952Z,94853.16
2022-12-20T22:00:54.827Z,94804.06
2022-12-20T22:03:22.318Z,94785.09
2022-12-20T22:05:49.671Z,94804.38
2022-12-20T22:08:16.244Z,94773.94
2022-12-20T22:10:42.645Z,94800.03
2022-12-20T22:13:10.199Z,94785.53
2022-12-20T22:15:37.670Z,94773.94
2022-12-20T22:18:05.514Z,94762.75
2022-12-20T22:20:31.960Z,94735.03
2022-12-20T22:22:58.304Z,94713.78
2022-12-20T22:25:25.201Z,94672.72
2022-12-20T22:27:51.574Z,94643.34
2022-12-20T22:30:18.067Z,94599.75
2022-12-20T22:32:44.529Z,94525.63
2022-12-20T22:35:10.871Z,94467.34
2022-12-20T22:37:37.287Z,94419.75
2022-12-20T22:40:05.034Z,94358.06
2022-12-20T22:42:31.430Z,94315.03
2022-12-20T22:44:57.860Z,94259.97
2022-12-20T22:47:24.247Z,94184.63
2022-12-20T22:49:50.593Z,94150.44
2022-12-20T22:52:16.958Z,94133.78
2022-12-20T22:54:43.364Z,94135.97
2022-12-20T22:57:11.926Z,94121.50
2022-12-20T22:59:38.638Z,94123.72
2022-12-20T23:02:05.198Z,94132.16
2022-12-20T23:04:31.771Z,94140.41
2022-12-20T23:06:58.145Z,94158.28
2022-12-20T23:09:25.472Z,94141.00
2022-12-20T23:12:10.748Z,94146.59
2022-12-20T23:15:01.778Z,94130.94
2022-12-20T23:17:30.096Z,94099.25
2022-12-20T23:20:15.272Z,94113.47
2022-12-20T23:22:41.630Z,94098.41
2022-12-20T23:25:13.110Z,94108.31
2022-12-20T23:27:40.111Z,94119.34
2022-12-20T23:30:07.324Z,94107.28
2022-12-20T23:32:33.768Z,94066.91
2022-12-20T23:35:00.254Z,94030.13
2022-12-20T23:37:28.489Z,93936.97
2022-12-20T23:39:55.207Z,93902.06
2022-12-20T23:42:21.600Z,93837.78
2022-12-20T23:44:47.966Z,93786.00
2022-12-20T23:47:18.702Z,93719.53
2022-12-20T23:49:45.434Z,93630.59
2022-12-20T23:52:11.800Z,93500.69
2022-12-20T23:54:38.175Z,93375.25
2022-12-20T23:57:04.602Z,93248.41
2022-12-20T23:59:30.956Z,93144.88
